createdAt,value
2023-05-07T00:03:18.713Z,70.59
2023-05-07T00:04:50.800Z,70.09
2023-05-07T00:06:22.958Z,70.19
2023-05-07T00:07:54.131Z,70.36
2023-05-07T00:09:26.323Z,70.59
2023-05-07T00:10:57.476Z,70.69
2023-05-07T00:12:28.604Z,69.89
2023-05-07T00:13:59.762Z,70.09
2023-05-07T00:16:03.113Z,69.98
2023-05-07T00:17:35.347Z,69.75
2023-05-07T00:28:16.147Z,69.95
2023-05-07T00:48:49.039Z,71.44
2023-05-07T00:50:51.840Z,72.04
2023-05-07T00:52:23.422Z,72.78
2023-05-07T01:08:21.608Z,74.77
2023-05-07T01:10:24.966Z,75.11
2023-05-07T01:12:28.311Z,74.98
2023-05-07T01:38:47.820Z,74.77
2023-05-07T01:42:57.881Z,75.42
2023-05-07T01:45:00.608Z,74.81
2023-05-07T01:47:03.948Z,74.60
2023-05-07T01:53:23.980Z,74.40
2023-05-07T01:54:54.706Z,74.20
2023-05-07T01:56:25.876Z,73.90
2023-05-07T01:57:57.031Z,73.66
2023-05-07T02:03:15.824Z,73.49
2023-05-07T02:04:46.844Z,73.69
2023-05-07T02:06:18.032Z,73.80
2023-05-07T02:07:49.179Z,74.00
2023-05-07T02:18:18.551Z,73.39
2023-05-07T02:19:49.777Z,73.49
2023-05-07T02:21:20.683Z,73.69
2023-05-07T02:22:51.913Z,73.80
2023-05-07T02:25:10.270Z,73.09
2023-05-07T02:27:06.768Z,73.09
2023-05-07T02:35:32.056Z,72.34
2023-05-07T02:37:36.324Z,72.44
2023-05-07T02:40:10.021Z,72.28
2023-05-07T02:41:41.061Z,72.28
2023-05-07T03:01:29.090Z,73.43
2023-05-07T03:03:00.244Z,73.66
2023-05-07T03:08:19.583Z,74.27
2023-05-07T03:09:51.079Z,74.27
2023-05-07T03:11:23.285Z,74.27
2023-05-07T03:12:55.474Z,74.37
2023-05-07T03:23:43.691Z,74.71
2023-05-07T03:25:14.851Z,74.81
2023-05-07T03:33:18.040Z,74.30
2023-05-07T03:35:21.379Z,74.30
2023-05-07T03:36:53.547Z,74.10
2023-05-07T03:43:22.620Z,73.90
2023-05-07T03:44:54.783Z,73.76
2023-05-07T03:47:00.059Z,73.56
2023-05-07T03:48:31.201Z,73.56
2023-05-07T03:50:02.508Z,73.56
2023-05-07T03:51:33.572Z,73.60
2023-05-07T03:53:04.764Z,73.70
2023-05-07T03:55:07.631Z,74.00
2023-05-07T03:58:12.649Z,74.54
2023-05-07T03:59:43.823Z,74.65
2023-05-07T04:01:14.984Z,74.54
2023-05-07T04:02:47.286Z,74.65
2023-05-07T04:10:54.804Z,74.34
2023-05-07T04:12:25.754Z,74.10
2023-05-07T04:13:56.874Z,73.90
2023-05-07T04:15:27.560Z,73.80
2023-05-07T04:17:31.891Z,73.70
2023-05-07T04:19:04.000Z,73.70
2023-05-07T04:20:35.149Z,73.63
2023-05-07T04:22:37.490Z,73.93
2023-05-07T04:35:08.375Z,73.93
2023-05-07T05:03:59.562Z,73.93
2023-05-07T05:05:31.669Z,73.83
2023-05-07T05:39:00.186Z,70.89
2023-05-07T05:40:32.840Z,70.89
2023-05-07T05:42:03.497Z,70.56
2023-05-07T05:59:52.787Z,68.50
2023-05-07T06:01:55.611Z,67.29
2023-05-07T06:09:20.945Z,66.11
2023-05-07T06:11:51.263Z,65.10
2023-05-07T06:13:24.517Z,65.70
2023-05-07T06:14:54.056Z,65.50
2023-05-07T06:36:55.772Z,64.20
2023-05-07T06:43:55.823Z,62.85
2023-05-07T06:45:26.966Z,63.36
2023-05-07T06:46:59.397Z,62.96
2023-05-07T06:49:19.309Z,62.83
2023-05-07T07:04:37.455Z,63.10
2023-05-07T07:06:22.817Z,62.90
2023-05-07T07:07:53.519Z,63.40
2023-05-07T07:28:19.966Z,64.55
2023-05-07T07:32:47.435Z,62.74
2023-05-07T07:47:29.855Z,62.10
2023-05-07T07:55:23.990Z,61.57
2023-05-07T07:58:57.644Z,60.27
2023-05-07T08:01:00.339Z,59.76
2023-05-07T08:02:31.570Z,59.99
2023-05-07T08:04:03.049Z,59.69
2023-05-07T08:06:45.762Z,60.09
2023-05-07T08:13:48.039Z,59.86
2023-05-07T08:15:19.226Z,59.56
2023-05-07T08:20:00.220Z,58.93
2023-05-07T08:22:02.569Z,59.33
2023-05-07T08:23:46.190Z,62.65
2023-05-07T08:26:06.202Z,64.53
2023-05-07T08:28:24.498Z,64.73
2023-05-07T08:30:28.852Z,64.83
2023-05-07T08:32:31.313Z,65.53
2023-05-07T08:40:14.679Z,64.87
2023-05-07T08:43:19.282Z,64.37
2023-05-07T08:44:50.474Z,64.57
2023-05-07T08:46:22.006Z,64.67
2023-05-07T08:47:54.700Z,64.67
2023-05-07T08:53:24.771Z,64.84
2023-05-07T08:54:56.381Z,65.01
2023-05-07T08:56:27.567Z,63.90
2023-05-07T08:57:58.729Z,64.21
2023-05-07T08:59:30.373Z,64.31
2023-05-07T09:01:02.050Z,64.11
2023-05-07T09:18:17.836Z,64.34
2023-05-07T09:19:49.977Z,61.14
2023-05-07T09:21:21.135Z,61.14
2023-05-07T09:22:53.313Z,63.14
2023-05-07T09:35:20.183Z,62.18
2023-05-07T09:41:59.185Z,61.65
2023-05-07T09:52:26.314Z,63.12
2023-05-07T10:04:42.826Z,61.32
2023-05-07T10:06:13.517Z,59.19
2023-05-07T10:07:44.722Z,57.19
2023-05-07T10:23:59.506Z,57.93
2023-05-07T10:26:05.961Z,56.04
2023-05-07T10:27:50.551Z,55.64
2023-05-07T10:29:21.855Z,59.44
2023-05-07T10:31:25.520Z,58.91
2023-05-07T10:48:30.617Z,56.66
2023-05-07T10:49:58.966Z,56.06
2023-05-07T11:00:58.413Z,58.10
2023-05-07T11:03:01.838Z,55.80
2023-05-07T11:05:06.043Z,54.01
2023-05-07T11:06:35.306Z,54.61
2023-05-07T11:08:07.468Z,54.61
2023-05-07T11:54:55.624Z,50.93
2023-05-07T11:56:26.968Z,50.23
2023-05-07T12:13:31.339Z,53.16
2023-05-07T12:15:27.328Z,50.08
2023-05-07T12:17:11.138Z,51.28
2023-05-07T12:24:35.466Z,51.45
2023-05-07T12:26:07.976Z,51.05
2023-05-07T12:27:39.853Z,51.87
2023-05-07T12:43:41.824Z,53.66
2023-05-07T12:45:36.402Z,52.76
2023-05-07T12:48:04.109Z,53.26
2023-05-07T13:10:32.493Z,50.48
2023-05-07T13:12:34.923Z,49.38
2023-05-07T13:39:28.977Z,51.37
2023-05-07T13:41:01.109Z,50.38
2023-05-07T13:43:03.033Z,50.18
2023-05-07T14:03:17.232Z,50.20
2023-05-07T14:08:23.211Z,52.62
2023-05-07T14:10:26.722Z,52.42
2023-05-07T14:12:28.646Z,51.82
2023-05-07T15:18:25.643Z,58.26
2023-05-07T15:20:30.180Z,58.56
2023-05-07T15:23:03.779Z,59.17
2023-05-07T15:28:21.663Z,59.36
2023-05-07T15:29:52.831Z,59.27
2023-05-07T15:31:25.101Z,59.27
2023-05-07T15:33:26.824Z,59.47
2023-05-07T16:43:07.055Z,63.54
2023-05-07T16:46:12.451Z,63.95
2023-05-07T16:48:25.826Z,64.54
2023-05-07T16:49:56.977Z,65.15
2023-05-07T16:51:59.350Z,65.05
2023-05-07T16:53:30.584Z,65.25
2023-05-07T16:55:32.896Z,65.25
2023-05-07T16:57:04.083Z,64.95
2023-05-07T17:13:18.015Z,64.58
2023-05-07T17:14:50.967Z,65.38
2023-05-07T17:16:20.884Z,65.38
2023-05-07T17:17:52.067Z,65.78
2023-05-07T17:44:53.891Z,70.39
2023-05-07T17:47:12.244Z,70.79
2023-05-07T17:48:43.872Z,70.89
2023-05-07T17:50:16.077Z,71.83
2023-05-07T17:51:53.974Z,72.24
2023-05-07T17:53:31.643Z,73.24
2023-05-07T17:55:08.223Z,73.07
2023-05-07T17:57:11.710Z,70.76
2023-05-07T17:58:59.059Z,71.70
2023-05-07T18:40:25.884Z,72.27
2023-05-07T18:48:20.462Z,73.22
2023-05-07T19:43:50.781Z,79.27
2023-05-07T19:45:21.953Z,79.47
2023-05-07T19:46:53.257Z,79.16
2023-05-07T20:13:54.810Z,78.06
2023-05-07T20:27:57.520Z,78.06
2023-05-07T20:33:03.137Z,77.89
2023-05-07T21:08:21.878Z,81.76
2023-05-07T21:09:53.058Z,81.56
2023-05-07T21:11:24.515Z,81.46
2023-05-07T21:12:55.716Z,81.56
2023-05-07T21:14:26.868Z,81.56
2023-05-07T21:15:58.075Z,81.70
2023-05-07T21:18:01.361Z,80.59
2023-05-07T21:23:19.231Z,80.08
2023-05-07T21:24:50.455Z,80.08
2023-05-07T21:26:55.825Z,80.08
2023-05-07T21:33:55.458Z,79.99
2023-05-07T21:35:59.303Z,79.88
2023-05-07T21:37:31.506Z,79.82
2023-05-07T21:43:56.827Z,79.72
2023-05-07T21:45:28.034Z,79.62
2023-05-07T21:47:01.471Z,79.62
2023-05-07T22:13:25.565Z,80.06
2023-05-07T22:15:27.806Z,80.57
2023-05-07T22:16:58.982Z,80.57
2023-05-07T22:20:05.600Z,80.16
2023-05-07T22:23:23.917Z,80.36
2023-05-07T22:24:55.380Z,80.26
2023-05-07T22:26:27.890Z,80.06
2023-05-07T22:28:30.261Z,79.86
2023-05-07T22:30:36.520Z,79.75
2023-05-07T22:32:09.850Z,79.75
2023-05-07T22:39:28.194Z,79.66
2023-05-07T22:40:59.384Z,79.46
2023-05-07T22:42:30.580Z,79.35
2023-05-07T22:44:01.763Z,79.25
2023-05-07T22:45:32.978Z,79.35
2023-05-07T22:47:04.929Z,79.55
2023-05-07T22:53:22.796Z,79.46
2023-05-07T22:54:55.694Z,79.90
2023-05-07T22:56:58.076Z,80.20
2023-05-07T22:58:27.417Z,79.90
2023-05-07T23:00:29.752Z,80.20
2023-05-07T23:02:00.949Z,80.20
2023-05-07T23:04:34.045Z,80.40
2023-05-07T23:06:05.204Z,80.50
2023-05-07T23:08:07.568Z,80.60
2023-05-07T23:18:55.205Z,80.64
2023-05-07T23:20:25.907Z,80.74
2023-05-07T23:21:58.083Z,80.80
2023-05-07T23:24:41.489Z,80.71
2023-05-07T23:44:53.228Z,80.64
2023-05-07T23:46:23.926Z,80.98
2023-05-07T23:47:55.176Z,81.69
2023-05-07T23:53:24.622Z,81.52
